Latest Coastal Weather Observations for Gold Coast Seaway

IDQ60701

Issued at 11:12 pm EST Tuesday 23 July 2019 (issued every 10 minutes, with the page automatically refreshed every 10 minutes)

About coastal observations | Map of coastal stations | Coastal observations for QLD | Marine services | Other Formats
Station Details ID: 040764 Name: GOLD COAST SEAWAY Lat: -27.94 Lon: 153.43 Height: 2.98 m
Data from the previous 72 hours. | See also: Recent months at Gold Coast Seaway
Date/Time
EST
Wind Sea
Height
m
Swell Vis
km
Cloud Weather Temp
°C
Press
hPa
Rain since
9am
mm
Dir  Spd
kts
Gust
kts
Height
m
Period
s
Dir
23/11:00pm NW 2 4 - - - - - - - 14.1 1020.6 0.0
23/10:30pm NNW 6 6 - - - - - - - 14.9 1020.6 0.0
23/10:00pm N 5 6 - - - - - - - 16.2 1020.5 0.0
23/09:30pm NNW 5 6 - - - - - - - 16.6 1020.6 0.0
23/09:00pm NW 7 9 - - - - - - - 17.4 1020.5 0.0
23/08:30pm NW 6 8 - - - - - - - 17.2 1020.4 0.0
23/08:00pm NNW 5 6 - - - - - - - 17.6 1020.3 0.0
23/07:30pm NNW 8 10 - - - - - - - 17.8 1019.9 0.0
23/07:00pm NW 7 8 - - - - - - - 18.2 1019.7 0.0
23/06:30pm NNW 6 8 - - - - - - - 18.5 1019.1 0.0
23/06:00pm NW 8 10 - - - - - - - 19.0 1018.7 0.0
23/05:30pm NNW 6 8 - - - - - - - 19.3 1018.4 0.0
23/05:00pm N 7 10 - - - - - - - 20.2 1018.1 0.0
23/04:30pm N 11 13 - - - - - - - 21.3 1017.9 0.0
23/04:00pm N 11 14 - - - - - - - 22.2 1017.8 0.0
23/03:30pm NNE 14 15 - - - - - - - 23.0 1017.8 0.0
23/03:00pm N 10 15 - - - - - - - 23.4 1017.9 0.0
23/02:30pm NW 9 14 - - - - - - - 25.4 1017.8 0.0
23/02:00pm NW 11 15 - - - - - - - 25.2 1017.9 0.0
23/01:30pm NNW 8 12 - - - - - - - 24.9 1018.1 0.0
23/01:00pm N 9 12 - - - - - - - 25.5 1018.6 0.0
23/12:30pm NW 7 10 - - - - - - - 23.7 1019.2 0.0
23/12:00pm NW 7 9 - - - - - - - 23.5 1019.8 0.0
23/11:30am NW 7 9 - - - - - - - 22.6 1020.3 0.0
23/11:00am NW 8 10 - - - - - - - 21.8 1020.7 0.0
23/10:30am NW 6 8 - - - - - - - 20.7 1021.1 0.0
23/10:00am N 8 9 - - - - - - - 19.9 1021.4 0.0
23/09:30am NW 7 8 - - - - - - - 18.1 1021.6 0.0
23/09:00am NNW 6 7 - - - - - - - 16.3 1021.6 0.0
23/08:30am NW 8 11 - - - - - - - 15.3 1021.4 0.0
23/08:00am NW 6 7 - - - - - - - 14.5 1021.2 0.0
23/07:30am NW 8 9 - - - - - - - 13.7 1020.9 0.0
23/07:00am NW 7 9 - - - - - - - 13.1 1020.7 0.0
23/06:30am NW 9 12 - - - - - - - 13.0 1020.4 0.0
23/06:00am NW 9 10 - - - - - - - 13.4 1020.0 0.0
23/05:30am NNW 9 10 - - - - - - - 13.9 1019.6 0.0
23/05:00am NW 7 8 - - - - - - - 14.0 1019.5 0.0
23/04:30am NW 6 7 - - - - - - - 14.1 1019.5 0.0
23/04:00am WNW 5 5 - - - - - - - 13.4 1019.4 0.0
23/03:30am W 5 5 - - - - - - - 13.2 1019.3 0.0
23/03:00am W 1 4 - - - - - - - 13.0 1019.3 0.0
23/02:30am W 3 4 - - - - - - - 13.4 1019.4 0.0
23/02:00am W 4 5 - - - - - - - 13.6 1019.4 0.0
23/01:30am WNW 6 6 - - - - - - - 13.8 1019.5 0.0
23/01:00am W 5 6 - - - - - - - 13.9 1019.8 0.0
23/12:30am W 5 6 - - - - - - - 14.5 1019.8 0.0
23/12:00am WNW 6 6 - - - - - - - 14.6 1020.0 0.0
 
Date/Time
EST
Wind Sea
Height
m
Swell Vis
km
Cloud Weather Temp
°C
Press
hPa
Rain since
9am
mm
Dir  Spd
kts
Gust
kts
Height
m
Period
s
Dir
22/11:30pm WNW 5 6 - - - - - - - 15.0 1019.8 0.0
22/11:00pm WNW 6 7 - - - - - - - 15.2 1019.9 0.0
22/10:30pm W 6 7 - - - - - - - 15.5 1019.8 0.0
22/10:00pm WNW 6 8 - - - - - - - 15.7 1019.8 0.0
22/09:30pm WNW 6 7 - - - - - - - 15.8 1019.7 0.0
22/09:00pm WNW 6 7 - - - - - - - 16.4 1019.6 0.0
22/08:30pm WNW 6 7 - - - - - - - 16.6 1019.4 0.0
22/08:00pm WNW 5 6 - - - - - - - 17.1 1019.1 0.0
22/07:30pm NW 6 7 - - - - - - - 17.7 1019.0 0.0
22/07:00pm NW 6 7 - - - - - - - 18.1 1018.6 0.0
22/06:30pm NW 6 8 - - - - - - - 18.5 1018.3 0.0
22/06:00pm N 9 10 - - - - - - - 19.0 1018.0 0.0
22/05:30pm NNE 10 12 - - - - - - - 19.0 1017.6 0.0
22/05:00pm NNE 12 14 - - - - - - - 19.2 1017.5 0.0
22/04:30pm NNE 13 15 - - - - - - - 19.7 1017.1 0.0
22/04:00pm NNE 14 16 - - - - - - - 19.6 1016.9 0.0
22/03:30pm NE 15 16 - - - - - - - 19.9 1016.7 0.0
22/03:00pm NNE 14 16 - - - - - - - 21.5 1016.8 0.0
22/02:30pm NE 14 16 - - - - - - - 21.2 1016.7 0.0
22/02:00pm NE 13 15 - - - - - - - 21.8 1016.8 0.0
22/01:30pm NNE 11 14 - - - - - - - 22.8 1017.1 0.0
22/01:00pm NNE 9 12 - - - - - - - 22.7 1017.5 0.0
22/12:30pm N 9 13 - - - - - - - 20.9 1018.1 0.0
22/12:00pm N 9 13 - - - - - - - 23.2 1018.6 0.0
22/11:30am N 9 14 - - - - - - - 21.9 1019.2 0.0
22/11:00am N 9 11 - - - - - - - 20.5 1019.6 0.0
22/10:30am NNW 7 9 - - - - - - - 20.3 1019.9 0.0
22/10:00am N 7 10 - - - - - - - 20.0 1020.1 0.0
22/09:30am NW 6 7 - - - - - - - 18.3 1020.3 0.0
22/09:00am WNW 6 7 - - - - - - - 17.4 1020.3 0.0
22/08:30am W 5 6 - - - - - - - 15.5 1020.0 0.0
22/08:00am WSW 6 7 - - - - - - - 14.4 1019.9 0.0
22/07:30am SW 6 8 - - - - - - - 13.1 1019.6 0.0
22/07:00am W 6 7 - - - - - - - 12.3 1019.2 0.0
22/06:30am W 6 7 - - - - - - - 12.4 1019.1 0.0
22/06:00am WNW 6 7 - - - - - - - 12.4 1018.9 0.0
22/05:30am WNW 6 7 - - - - - - - 12.4 1018.6 0.0
22/05:00am W 5 6 - - - - - - - 11.9 1018.5 0.0
22/04:30am WNW 7 8 - - - - - - - 12.3 1018.3 0.0
22/04:00am W 7 7 - - - - - - - 12.5 1018.4 0.0
22/03:30am NW 5 5 - - - - - - - 10.9 1018.4 0.0
22/03:00am WNW 3 5 - - - - - - - 11.7 1018.6 0.0
22/02:30am SW 4 6 - - - - - - - 12.4 1018.5 0.0
22/02:00am SW 6 7 - - - - - - - 12.2 1018.8 0.0
22/01:30am W 6 7 - - - - - - - 12.5 1018.9 0.0
22/01:00am WSW 6 8 - - - - - - - 13.0 1019.4 0.0
22/12:30am WSW 5 6 - - - - - - - 12.7 1019.6 0.0
22/12:00am WNW 7 8 - - - - - - - 13.8 1019.9 0.0
 
Date/Time
EST
Wind Sea
Height
m
Swell Vis
km
Cloud Weather Temp
°C
Press
hPa
Rain since
9am
mm
Dir  Spd
kts
Gust
kts
Height
m
Period
s
Dir
21/11:30pm WNW 6 7 - - - - - - - 13.4 1020.1 0.0
21/11:00pm W 5 5 - - - - - - - 13.6 1020.2 0.0
21/10:30pm SW 6 8 - - - - - - - 13.6 1020.2 0.0
21/10:00pm SW 7 8 - - - - - - - 14.0 1020.4 0.0
21/09:30pm WSW 6 7 - - - - - - - 14.5 1020.4 0.0
21/09:00pm W 6 7 - - - - - - - 15.1 1020.2 0.0
21/08:30pm NW 7 9 - - - - - - - 16.2 1019.9 0.0
21/08:00pm NW 7 9 - - - - - - - 16.2 1019.8 0.0
21/07:30pm NW 7 9 - - - - - - - 16.3 1019.5 0.0
21/07:00pm NNW 7 9 - - - - - - - 16.4 1019.2 0.0
21/06:30pm NNW 8 10 - - - - - - - 16.6 1018.9 0.0
21/06:00pm NNW 9 11 - - - - - - - 17.5 1018.8 0.0
21/05:30pm N 14 17 - - - - - - - 18.2 1018.5 0.0
21/05:00pm NNE 14 17 - - - - - - - 18.6 1018.3 0.0
21/04:30pm NNE 14 16 - - - - - - - 19.4 1017.9 0.0
21/04:00pm NNE 15 17 - - - - - - - 20.1 1017.9 0.0
21/03:30pm NNE 15 16 - - - - - - - 20.5 1018.0 0.0
21/03:00pm NNE 13 15 - - - - - - - 20.6 1018.3 0.0
21/02:30pm NNE 14 15 - - - - - - - 20.8 1018.3 0.0
21/02:00pm NE 11 14 - - - - - - - 21.0 1018.6 0.0
21/01:30pm NNE 11 14 - - - - - - - 22.1 1018.9 0.0
21/01:00pm N 9 12 - - - - - - - 21.6 1019.3 0.0
21/12:30pm N 8 15 - - - - - - - 21.9 1020.0 0.0
21/12:00pm NNE 8 10 - - - - - - - 21.6 1020.7 0.0
21/11:30am NNW 7 10 - - - - - - - 20.7 1021.3 0.0
21/11:00am NNE 5 6 - - - - - - - 20.2 1021.7 0.0
21/10:30am NNW 6 8 - - - - - - - 19.4 1021.9 0.0
21/10:00am NW 5 7 - - - - - - - 18.5 1022.4 0.0
21/09:30am NW 4 5 - - - - - - - 17.9 1022.7 0.0
21/09:00am NW 4 5 - - - - - - - 16.7 1022.8 0.0
21/08:30am W 5 6 - - - - - - - 15.1 1022.6 0.0
21/08:00am WSW 3 5 - - - - - - - 13.5 1022.5 0.0
21/07:30am W 2 5 - - - - - - - 11.7 1022.3 0.0
21/07:00am WNW 4 5 - - - - - - - 10.3 1022.2 0.0
21/06:30am WNW 7 8 - - - - - - - 11.1 1022.1 0.0
21/06:00am WNW 7 8 - - - - - - - 11.2 1021.9 0.0
21/05:30am WNW 8 8 - - - - - - - 11.6 1021.8 0.0
21/05:00am W 6 7 - - - - - - - 11.9 1021.5 0.0
21/04:30am WSW 5 7 - - - - - - - 12.1 1021.6 0.0
21/04:00am WSW 6 7 - - - - - - - 12.3 1021.8 0.0
21/03:30am WSW 7 8 - - - - - - - 12.5 1021.9 0.0
21/03:00am W 6 7 - - - - - - - 12.4 1022.0 0.0
21/02:30am WSW 5 6 - - - - - - - 12.7 1022.0 0.0
21/02:00am SW 5 7 - - - - - - - 12.4 1022.1 0.0
21/01:30am WSW 7 8 - - - - - - - 12.7 1022.4 0.0
21/01:00am WSW 6 7 - - - - - - - 12.8 1022.3 0.0
21/12:30am SW 7 8 - - - - - - - 13.0 1022.4 0.0
21/12:00am SW 8 9 - - - - - - - 13.0 1022.6 0.0
 
Date/Time
EST
Wind Sea
Height
m
Swell Vis
km
Cloud Weather Temp
°C
Press
hPa
Rain since
9am
mm
Dir  Spd
kts
Gust
kts
Height
m
Period
s
Dir
20/11:30pm SW 7 9 - - - - - - - 13.4 1022.9 0.0

Other formats

Comma delimited format used in spreadsheet applications
http://www.bom.gov.au/fwo/IDQ60701/IDQ60701.94580.axf

JavaScript Object Notation format (JSON) in row-major order
http://www.bom.gov.au/fwo/IDQ60701/IDQ60701.94580.json

Data quality

Most of these data are generated automatically and are frequently updated. Quality checks on data are not normally performed. It is possible for incorrect values to appear. Refer to information at About Latest Weather Observations and please check the disclaimer before using these data.